Weather at St-Lambert-De-Lauzon Airport

Public forecast

Using degrees Celsius for public forecast. Weather courtesy of forecast.io.

Closest aviation weather report (METAR) to St-Lambert-De-Lauzon Airport

Closest report is Quebec Jean Lesage International Airport, 16.4 nm (30.3 km) NNW.

2024/07/22 01:00 (retrieved 34 minutes ago)

CYQB 220100Z 25005KT 30SM FEW080 FEW250 15/11 A2998 RMK AC1CI2 AC TR SLP157

Closest aviation forecast (TAF) to St-Lambert-De-Lauzon Airport

Closest forecast is Trois-Rivières Airport, 63.2 nm (117.0 km) W.

2024/07/21 20:00 (retrieved 6 hours ago)

TAF CYRQ 211950Z 2120/2208 29008KT P6SM FEW060 BECMG 2120/2122 25007KT RMK FCST BASED ON AUTO OBS NXT FCST BY 220200Z